sensor_id;sensor_type;location;lat;lon;timestamp;pressure;altitude;pressure_sealevel;temperature;humidity
43824;BME280;29470;53.550;9.926;2023-01-30T00:03:56;100594.72;;;4.92;100.00
43824;BME280;29470;53.550;9.926;2023-01-30T00:08:59;100578.69;;;4.94;100.00
43824;BME280;29470;53.550;9.926;2023-01-30T00:14:02;100570.44;;;5.37;100.00
43824;BME280;29470;53.550;9.926;2023-01-30T00:19:06;100557.34;;;5.04;100.00
43824;BME280;29470;53.550;9.926;2023-01-30T00:24:09;100559.06;;;4.84;100.00
43824;BME280;29470;53.550;9.926;2023-01-30T00:29:12;100530.59;;;5.11;100.00
43824;BME280;29470;53.550;9.926;2023-01-30T00:34:16;100524.69;;;5.12;100.00
43824;BME280;29470;53.550;9.926;2023-01-30T00:39:19;100506.44;;;4.98;100.00
43824;BME280;29470;53.550;9.926;2023-01-30T00:44:22;100480.50;;;5.14;100.00
43824;BME280;29470;53.550;9.926;2023-01-30T00:49:43;100464.47;;;5.17;100.00
43824;BME280;29470;53.550;9.926;2023-01-30T00:54:47;100451.03;;;5.30;100.00
43824;BME280;29470;53.550;9.926;2023-01-30T00:59:51;100441.06;;;5.64;100.00
43824;BME280;29470;53.550;9.926;2023-01-30T01:04:56;100425.78;;;5.35;100.00
43824;BME280;29470;53.550;9.926;2023-01-30T01:10:00;100431.56;;;5.63;100.00
43824;BME280;29470;53.550;9.926;2023-01-30T01:15:04;100410.25;;;5.43;100.00
43824;BME280;29470;53.550;9.926;2023-01-30T01:20:09;100402.81;;;5.57;100.00
43824;BME280;29470;53.550;9.926;2023-01-30T01:25:14;100399.47;;;5.79;100.00
43824;BME280;29470;53.550;9.926;2023-01-30T01:30:20;100392.69;;;5.79;100.00
43824;BME280;29470;53.550;9.926;2023-01-30T01:35:24;100380.13;;;6.03;100.00
43824;BME280;29470;53.550;9.926;2023-01-30T01:40:27;100361.41;;;5.63;100.00
43824;BME280;29470;53.550;9.926;2023-01-30T01:45:48;100374.56;;;5.88;100.00
43824;BME280;29470;53.550;9.926;2023-01-30T01:50:57;100358.28;;;5.98;100.00
43824;BME280;29470;53.550;9.926;2023-01-30T01:56:03;100339.81;;;5.81;100.00
43824;BME280;29470;53.550;9.926;2023-01-30T02:01:07;100341.88;;;5.85;100.00
43824;BME280;29470;53.550;9.926;2023-01-30T02:06:13;100341.13;;;5.66;100.00
43824;BME280;29470;53.550;9.926;2023-01-30T02:11:20;100335.56;;;6.02;100.00
43824;BME280;29470;53.550;9.926;2023-01-30T02:16:26;100318.25;;;6.32;100.00
43824;BME280;29470;53.550;9.926;2023-01-30T02:27:44;100307.03;;;6.10;100.00
43824;BME280;29470;53.550;9.926;2023-01-30T02:33:02;100299.31;;;5.99;100.00
43824;BME280;29470;53.550;9.926;2023-01-30T02:38:18;100292.47;;;5.67;100.00
43824;BME280;29470;53.550;9.926;2023-01-30T02:43:31;100284.31;;;6.14;100.00
43824;BME280;29470;53.550;9.926;2023-01-30T02:48:40;100272.06;;;6.22;100.00
43824;BME280;29470;53.550;9.926;2023-01-30T02:53:46;100265.47;;;6.26;100.00
43824;BME280;29470;53.550;9.926;2023-01-30T02:58:53;100268.34;;;6.18;100.00
43824;BME280;29470;53.550;9.926;2023-01-30T03:04:21;100248.75;;;6.31;100.00
43824;BME280;29470;53.550;9.926;2023-01-30T03:09:37;100231.03;;;6.56;100.00
43824;BME280;29470;53.550;9.926;2023-01-30T03:14:48;100234.50;;;6.34;100.00
43824;BME280;29470;53.550;9.926;2023-01-30T03:19:55;100228.63;;;6.47;100.00
43824;BME280;29470;53.550;9.926;2023-01-30T03:24:58;100206.22;;;6.57;100.00
43824;BME280;29470;53.550;9.926;2023-01-30T03:30:01;100207.59;;;6.63;100.00
43824;BME280;29470;53.550;9.926;2023-01-30T03:35:06;100211.09;;;6.76;100.00
43824;BME280;29470;53.550;9.926;2023-01-30T03:40:11;100208.69;;;6.55;100.00
43824;BME280;29470;53.550;9.926;2023-01-30T03:45:15;100194.06;;;6.66;100.00
43824;BME280;29470;53.550;9.926;2023-01-30T03:50:22;100183.53;;;6.85;100.00
43824;BME280;29470;53.550;9.926;2023-01-30T03:55:25;100160.97;;;7.17;100.00
43824;BME280;29470;53.550;9.926;2023-01-30T04:00:28;100180.28;;;6.54;100.00
43824;BME280;29470;53.550;9.926;2023-01-30T04:05:32;100179.06;;;6.95;100.00
43824;BME280;29470;53.550;9.926;2023-01-30T04:10:39;100158.03;;;7.12;100.00
43824;BME280;29470;53.550;9.926;2023-01-30T04:15:42;100172.66;;;6.77;100.00
43824;BME280;29470;53.550;9.926;2023-01-30T04:21:07;100174.84;;;6.61;100.00
43824;BME280;29470;53.550;9.926;2023-01-30T04:26:12;100186.56;;;6.57;100.00
43824;BME280;29470;53.550;9.926;2023-01-30T04:31:15;100174.38;;;6.55;100.00
43824;BME280;29470;53.550;9.926;2023-01-30T04:36:40;100165.97;;;6.91;100.00
43824;BME280;29470;53.550;9.926;2023-01-30T04:41:43;100179.38;;;6.87;100.00
43824;BME280;29470;53.550;9.926;2023-01-30T04:46:46;100172.47;;;6.98;100.00
43824;BME280;29470;53.550;9.926;2023-01-30T04:51:51;100178.00;;;6.69;100.00
43824;BME280;29470;53.550;9.926;2023-01-30T04:56:54;100166.09;;;6.93;100.00
43824;BME280;29470;53.550;9.926;2023-01-30T05:01:58;100172.31;;;6.85;100.00
43824;BME280;29470;53.550;9.926;2023-01-30T05:07:02;100167.19;;;6.39;100.00
43824;BME280;29470;53.550;9.926;2023-01-30T05:12:06;100165.78;;;6.66;100.00
43824;BME280;29470;53.550;9.926;2023-01-30T05:17:08;100163.34;;;6.33;100.00
43824;BME280;29470;53.550;9.926;2023-01-30T05:22:13;100179.00;;;6.37;100.00
43824;BME280;29470;53.550;9.926;2023-01-30T05:27:16;100165.09;;;6.57;100.00
43824;BME280;29470;53.550;9.926;2023-01-30T05:32:19;100149.81;;;6.70;100.00
43824;BME280;29470;53.550;9.926;2023-01-30T05:37:24;100163.06;;;6.18;100.00
43824;BME280;29470;53.550;9.926;2023-01-30T05:42:27;100165.56;;;6.07;100.00
43824;BME280;29470;53.550;9.926;2023-01-30T05:47:29;100175.72;;;6.27;100.00
43824;BME280;29470;53.550;9.926;2023-01-30T05:52:34;100173.81;;;6.02;100.00
43824;BME280;29470;53.550;9.926;2023-01-30T05:57:37;100165.84;;;6.22;100.00
43824;BME280;29470;53.550;9.926;2023-01-30T06:02:40;100153.69;;;6.19;100.00
43824;BME280;29470;53.550;9.926;2023-01-30T06:07:44;100152.97;;;5.87;100.00
43824;BME280;29470;53.550;9.926;2023-01-30T06:12:47;100158.34;;;5.90;100.00
43824;BME280;29470;53.550;9.926;2023-01-30T06:17:50;100167.28;;;5.63;100.00
43824;BME280;29470;53.550;9.926;2023-01-30T06:22:54;100179.47;;;5.66;100.00
43824;BME280;29470;53.550;9.926;2023-01-30T06:27:57;100170.31;;;5.80;100.00
43824;BME280;29470;53.550;9.926;2023-01-30T06:33:00;100180.38;;;5.66;100.00
43824;BME280;29470;53.550;9.926;2023-01-30T06:38:05;100190.75;;;5.68;100.00
43824;BME280;29470;53.550;9.926;2023-01-30T06:43:10;100194.91;;;5.55;100.00
43824;BME280;29470;53.550;9.926;2023-01-30T06:48:12;100192.41;;;5.67;100.00
43824;BME280;29470;53.550;9.926;2023-01-30T06:53:17;100188.69;;;6.07;100.00
43824;BME280;29470;53.550;9.926;2023-01-30T06:58:19;100191.34;;;5.75;100.00
43824;BME280;29470;53.550;9.926;2023-01-30T07:03:23;100196.19;;;5.60;100.00
43824;BME280;29470;53.550;9.926;2023-01-30T07:08:27;100199.00;;;5.86;100.00
43824;BME280;29470;53.550;9.926;2023-01-30T07:13:30;100206.59;;;5.41;100.00
43824;BME280;29470;53.550;9.926;2023-01-30T07:18:33;100207.91;;;5.79;100.00
43824;BME280;29470;53.550;9.926;2023-01-30T07:23:37;100191.88;;;5.71;100.00
43824;BME280;29470;53.550;9.926;2023-01-30T07:28:40;100184.63;;;5.66;100.00
43824;BME280;29470;53.550;9.926;2023-01-30T07:33:43;100198.06;;;5.63;100.00
43824;BME280;29470;53.550;9.926;2023-01-30T07:38:48;100179.44;;;5.76;100.00
43824;BME280;29470;53.550;9.926;2023-01-30T07:43:51;100191.69;;;5.90;100.00
43824;BME280;29470;53.550;9.926;2023-01-30T07:48:53;100194.66;;;5.85;100.00
43824;BME280;29470;53.550;9.926;2023-01-30T07:54:00;100189.03;;;6.33;100.00
43824;BME280;29470;53.550;9.926;2023-01-30T07:59:04;100180.19;;;6.52;100.00
43824;BME280;29470;53.550;9.926;2023-01-30T08:04:07;100199.09;;;6.65;100.00
43824;BME280;29470;53.550;9.926;2023-01-30T08:09:11;100191.81;;;6.59;100.00
43824;BME280;29470;53.550;9.926;2023-01-30T08:14:14;100183.84;;;6.78;100.00
43824;BME280;29470;53.550;9.926;2023-01-30T08:19:17;100190.38;;;6.62;100.00
43824;BME280;29470;53.550;9.926;2023-01-30T08:24:22;100198.47;;;6.45;100.00
43824;BME280;29470;53.550;9.926;2023-01-30T08:29:24;100209.47;;;5.99;100.00
43824;BME280;29470;53.550;9.926;2023-01-30T08:34:29;100215.25;;;6.29;100.00
43824;BME280;29470;53.550;9.926;2023-01-30T08:39:33;100203.94;;;6.84;100.00
43824;BME280;29470;53.550;9.926;2023-01-30T08:44:38;100199.50;;;6.81;100.00
43824;BME280;29470;53.550;9.926;2023-01-30T08:49:41;100198.47;;;6.79;100.00
43824;BME280;29470;53.550;9.926;2023-01-30T08:54:45;100202.63;;;6.55;100.00
43824;BME280;29470;53.550;9.926;2023-01-30T08:59:48;100196.38;;;6.85;100.00
43824;BME280;29470;53.550;9.926;2023-01-30T09:04:52;100189.44;;;6.96;100.00
43824;BME280;29470;53.550;9.926;2023-01-30T09:09:56;100202.47;;;7.33;100.00
43824;BME280;29470;53.550;9.926;2023-01-30T09:14:58;100192.59;;;7.04;99.82
43824;BME280;29470;53.550;9.926;2023-01-30T09:20:01;100185.72;;;6.69;100.00
43824;BME280;29470;53.550;9.926;2023-01-30T09:25:06;100193.97;;;6.65;100.00
43824;BME280;29470;53.550;9.926;2023-01-30T09:30:10;100187.13;;;6.53;100.00
43824;BME280;29470;53.550;9.926;2023-01-30T09:35:13;100185.44;;;7.12;100.00
43824;BME280;29470;53.550;9.926;2023-01-30T09:40:21;100154.47;;;7.22;100.00
43824;BME280;29470;53.550;9.926;2023-01-30T09:45:49;100158.94;;;7.48;100.00
43824;BME280;29470;53.550;9.926;2023-01-30T09:51:15;100160.59;;;7.60;96.85
43824;BME280;29470;53.550;9.926;2023-01-30T09:56:25;100152.22;;;8.00;93.22
43824;BME280;29470;53.550;9.926;2023-01-30T10:01:35;100165.97;;;7.63;93.19
43824;BME280;29470;53.550;9.926;2023-01-30T10:06:50;100132.22;;;7.34;97.46
43824;BME280;29470;53.550;9.926;2023-01-30T10:12:07;100140.47;;;6.71;100.00
43824;BME280;29470;53.550;9.926;2023-01-30T10:17:31;100133.91;;;6.86;100.00
43824;BME280;29470;53.550;9.926;2023-01-30T10:22:43;100114.06;;;6.61;100.00
43824;BME280;29470;53.550;9.926;2023-01-30T10:27:55;100126.59;;;6.69;100.00
43824;BME280;29470;53.550;9.926;2023-01-30T10:33:04;100127.16;;;6.65;99.15
43824;BME280;29470;53.550;9.926;2023-01-30T10:38:11;100117.78;;;5.86;100.00
43824;BME280;29470;53.550;9.926;2023-01-30T10:43:22;100114.00;;;6.03;100.00
43824;BME280;29470;53.550;9.926;2023-01-30T10:48:43;100084.94;;;6.73;100.00
43824;BME280;29470;53.550;9.926;2023-01-30T10:53:55;100107.78;;;6.46;100.00
43824;BME280;29470;53.550;9.926;2023-01-30T10:59:06;100143.75;;;6.24;100.00
43824;BME280;29470;53.550;9.926;2023-01-30T11:04:26;100163.97;;;5.21;100.00
43824;BME280;29470;53.550;9.926;2023-01-30T11:09:39;100160.13;;;5.16;100.00
43824;BME280;29470;53.550;9.926;2023-01-30T11:14:54;100168.56;;;5.36;100.00
43824;BME280;29470;53.550;9.926;2023-01-30T11:20:03;100162.22;;;5.42;100.00
43824;BME280;29470;53.550;9.926;2023-01-30T11:25:12;100188.16;;;5.35;100.00
43824;BME280;29470;53.550;9.926;2023-01-30T11:30:18;100181.56;;;5.06;100.00
43824;BME280;29470;53.550;9.926;2023-01-30T11:35:25;100177.03;;;5.24;100.00
43824;BME280;29470;53.550;9.926;2023-01-30T11:40:29;100174.31;;;5.33;100.00
43824;BME280;29470;53.550;9.926;2023-01-30T11:45:39;100177.44;;;5.29;100.00
43824;BME280;29470;53.550;9.926;2023-01-30T11:50:45;100170.00;;;5.87;100.00
43824;BME280;29470;53.550;9.926;2023-01-30T11:55:50;100161.06;;;5.82;100.00
43824;BME280;29470;53.550;9.926;2023-01-30T12:01:08;100135.47;;;6.16;100.00
43824;BME280;29470;53.550;9.926;2023-01-30T12:06:20;100132.84;;;6.26;100.00
43824;BME280;29470;53.550;9.926;2023-01-30T12:11:30;100117.41;;;6.14;100.00
43824;BME280;29470;53.550;9.926;2023-01-30T12:16:45;100118.06;;;6.46;100.00
43824;BME280;29470;53.550;9.926;2023-01-30T12:21:57;100129.72;;;6.30;100.00
43824;BME280;29470;53.550;9.926;2023-01-30T12:27:04;100113.59;;;6.09;100.00
43824;BME280;29470;53.550;9.926;2023-01-30T12:32:12;100152.66;;;5.95;100.00
43824;BME280;29470;53.550;9.926;2023-01-30T12:37:29;100150.44;;;6.22;100.00
43824;BME280;29470;53.550;9.926;2023-01-30T12:43:03;100169.28;;;6.10;100.00
43824;BME280;29470;53.550;9.926;2023-01-30T12:48:37;100159.63;;;6.52;100.00
43824;BME280;29470;53.550;9.926;2023-01-30T12:53:59;100168.41;;;6.44;100.00
43824;BME280;29470;53.550;9.926;2023-01-30T12:59:09;100156.72;;;7.05;100.00
43824;BME280;29470;53.550;9.926;2023-01-30T13:04:16;100167.78;;;7.04;100.00
43824;BME280;29470;53.550;9.926;2023-01-30T13:09:36;100176.06;;;7.36;99.65
43824;BME280;29470;53.550;9.926;2023-01-30T13:14:45;100167.09;;;7.31;95.54
43824;BME280;29470;53.550;9.926;2023-01-30T13:19:57;100169.13;;;7.47;96.45
43824;BME280;29470;53.550;9.926;2023-01-30T13:25:14;100187.25;;;7.48;93.97
43824;BME280;29470;53.550;9.926;2023-01-30T13:30:21;100191.25;;;7.80;89.50
43824;BME280;29470;53.550;9.926;2023-01-30T13:35:30;100172.38;;;7.32;91.23
43824;BME280;29470;53.550;9.926;2023-01-30T13:40:37;100172.59;;;7.12;96.06
43824;BME280;29470;53.550;9.926;2023-01-30T13:45:43;100179.88;;;7.29;94.73
43824;BME280;29470;53.550;9.926;2023-01-30T13:51:19;100192.19;;;7.57;92.17
43824;BME280;29470;53.550;9.926;2023-01-30T13:56:29;100215.22;;;7.56;87.61
43824;BME280;29470;53.550;9.926;2023-01-30T14:02:15;100232.47;;;7.69;88.17
43824;BME280;29470;53.550;9.926;2023-01-30T14:07:27;100264.53;;;7.38;93.39
43824;BME280;29470;53.550;9.926;2023-01-30T14:12:34;100269.47;;;7.59;93.32
43824;BME280;29470;53.550;9.926;2023-01-30T14:17:38;100282.72;;;7.63;92.42
43824;BME280;29470;53.550;9.926;2023-01-30T14:22:50;100294.88;;;7.66;95.09
43824;BME280;29470;53.550;9.926;2023-01-30T14:27:56;100309.66;;;7.57;95.13
43824;BME280;29470;53.550;9.926;2023-01-30T14:33:32;100311.59;;;7.95;93.14
43824;BME280;29470;53.550;9.926;2023-01-30T14:38:37;100334.38;;;7.43;94.06
43824;BME280;29470;53.550;9.926;2023-01-30T14:43:49;100360.84;;;7.88;91.45
43824;BME280;29470;53.550;9.926;2023-01-30T14:48:58;100372.28;;;7.91;89.85
43824;BME280;29470;53.550;9.926;2023-01-30T14:54:17;100396.78;;;7.86;87.58
43824;BME280;29470;53.550;9.926;2023-01-30T14:59:29;100404.75;;;7.89;86.29
43824;BME280;29470;53.550;9.926;2023-01-30T15:04:41;100434.09;;;8.15;85.26
43824;BME280;29470;53.550;9.926;2023-01-30T15:09:55;100417.25;;;7.73;84.49
43824;BME280;29470;53.550;9.926;2023-01-30T15:15:06;100450.88;;;7.98;83.38
43824;BME280;29470;53.550;9.926;2023-01-30T15:20:25;100476.78;;;7.77;83.18
43824;BME280;29470;53.550;9.926;2023-01-30T15:25:43;100489.03;;;7.92;82.34
43824;BME280;29470;53.550;9.926;2023-01-30T15:31:04;100507.00;;;8.02;82.33
43824;BME280;29470;53.550;9.926;2023-01-30T15:36:19;100524.75;;;7.65;82.20
43824;BME280;29470;53.550;9.926;2023-01-30T15:41:23;100539.66;;;7.91;81.71
43824;BME280;29470;53.550;9.926;2023-01-30T15:46:34;100557.16;;;7.51;83.69
43824;BME280;29470;53.550;9.926;2023-01-30T15:51:43;100567.47;;;7.51;82.62
43824;BME280;29470;53.550;9.926;2023-01-30T15:56:47;100579.22;;;7.37;84.58
43824;BME280;29470;53.550;9.926;2023-01-30T16:01:58;100596.25;;;7.25;84.71
43824;BME280;29470;53.550;9.926;2023-01-30T16:07:13;100613.56;;;7.37;85.65
43824;BME280;29470;53.550;9.926;2023-01-30T16:12:24;100628.16;;;7.16;89.52
43824;BME280;29470;53.550;9.926;2023-01-30T16:17:29;100627.06;;;7.35;87.97
43824;BME280;29470;53.550;9.926;2023-01-30T16:22:33;100636.13;;;7.19;88.33
43824;BME280;29470;53.550;9.926;2023-01-30T16:27:38;100648.09;;;7.29;88.41
43824;BME280;29470;53.550;9.926;2023-01-30T16:32:41;100659.31;;;7.09;89.58
43824;BME280;29470;53.550;9.926;2023-01-30T16:37:44;100674.00;;;7.00;91.04
43824;BME280;29470;53.550;9.926;2023-01-30T16:42:56;100676.72;;;6.70;92.97
43824;BME280;29470;53.550;9.926;2023-01-30T16:48:21;100702.81;;;6.96;91.34
43824;BME280;29470;53.550;9.926;2023-01-30T16:53:27;100711.56;;;6.77;91.96
43824;BME280;29470;53.550;9.926;2023-01-30T16:58:34;100741.69;;;6.38;92.72
43824;BME280;29470;53.550;9.926;2023-01-30T17:03:40;100749.81;;;6.43;91.98
43824;BME280;29470;53.550;9.926;2023-01-30T17:08:46;100759.06;;;6.51;91.35
43824;BME280;29470;53.550;9.926;2023-01-30T17:14:09;100776.28;;;6.52;89.08
43824;BME280;29470;53.550;9.926;2023-01-30T17:19:17;100784.50;;;6.48;88.41
43824;BME280;29470;53.550;9.926;2023-01-30T17:24:22;100801.69;;;6.39;92.18
43824;BME280;29470;53.550;9.926;2023-01-30T17:29:28;100808.09;;;6.33;93.98
43824;BME280;29470;53.550;9.926;2023-01-30T17:34:43;100833.53;;;6.30;92.97
43824;BME280;29470;53.550;9.926;2023-01-30T17:39:46;100831.25;;;6.44;90.12
43824;BME280;29470;53.550;9.926;2023-01-30T17:44:51;100834.00;;;6.26;89.37
43824;BME280;29470;53.550;9.926;2023-01-30T17:49:54;100834.41;;;6.31;87.67
43824;BME280;29470;53.550;9.926;2023-01-30T17:54:57;100850.69;;;6.21;87.53
43824;BME280;29470;53.550;9.926;2023-01-30T18:00:02;100844.28;;;6.26;87.57
43824;BME280;29470;53.550;9.926;2023-01-30T18:05:10;100839.44;;;6.29;88.67
43824;BME280;29470;53.550;9.926;2023-01-30T18:10:16;100842.06;;;6.50;87.25
43824;BME280;29470;53.550;9.926;2023-01-30T18:15:23;100858.72;;;6.34;87.34
43824;BME280;29470;53.550;9.926;2023-01-30T18:20:25;100876.00;;;6.27;89.42
43824;BME280;29470;53.550;9.926;2023-01-30T18:25:28;100890.84;;;6.10;88.46
43824;BME280;29470;53.550;9.926;2023-01-30T18:30:33;100888.88;;;6.08;88.37
43824;BME280;29470;53.550;9.926;2023-01-30T18:35:36;100890.88;;;5.82;89.27
43824;BME280;29470;53.550;9.926;2023-01-30T18:40:39;100896.56;;;5.88;88.55
43824;BME280;29470;53.550;9.926;2023-01-30T18:45:44;100897.88;;;5.74;87.23
43824;BME280;29470;53.550;9.926;2023-01-30T18:50:47;100925.84;;;5.90;84.09
43824;BME280;29470;53.550;9.926;2023-01-30T18:55:50;100939.56;;;5.72;83.09
43824;BME280;29470;53.550;9.926;2023-01-30T19:00:58;100942.81;;;5.80;83.31
43824;BME280;29470;53.550;9.926;2023-01-30T19:06:02;100955.00;;;5.63;82.06
43824;BME280;29470;53.550;9.926;2023-01-30T19:11:06;100947.84;;;5.97;80.72
43824;BME280;29470;53.550;9.926;2023-01-30T19:16:38;100975.81;;;5.94;79.14
43824;BME280;29470;53.550;9.926;2023-01-30T19:22:02;100971.81;;;5.79;79.80
43824;BME280;29470;53.550;9.926;2023-01-30T19:27:13;100981.53;;;5.72;80.00
43824;BME280;29470;53.550;9.926;2023-01-30T19:32:37;100983.63;;;5.49;83.81
43824;BME280;29470;53.550;9.926;2023-01-30T19:37:40;101000.28;;;5.35;84.89
43824;BME280;29470;53.550;9.926;2023-01-30T19:42:49;101011.13;;;5.41;86.53
43824;BME280;29470;53.550;9.926;2023-01-30T19:48:01;101030.38;;;5.55;86.62
43824;BME280;29470;53.550;9.926;2023-01-30T19:53:06;101036.25;;;5.63;85.91
43824;BME280;29470;53.550;9.926;2023-01-30T19:58:12;101054.81;;;5.60;84.67
43824;BME280;29470;53.550;9.926;2023-01-30T20:03:16;101064.00;;;5.67;84.41
43824;BME280;29470;53.550;9.926;2023-01-30T20:08:19;101071.59;;;5.56;85.99
43824;BME280;29470;53.550;9.926;2023-01-30T20:13:34;101074.28;;;5.58;86.07
43824;BME280;29470;53.550;9.926;2023-01-30T20:18:39;101083.19;;;5.53;86.64
43824;BME280;29470;53.550;9.926;2023-01-30T20:23:44;101078.94;;;5.62;86.44
43824;BME280;29470;53.550;9.926;2023-01-30T20:28:55;101090.72;;;5.69;84.92
43824;BME280;29470;53.550;9.926;2023-01-30T20:34:01;101094.22;;;5.52;84.13
43824;BME280;29470;53.550;9.926;2023-01-30T20:39:05;101117.31;;;5.60;83.33
43824;BME280;29470;53.550;9.926;2023-01-30T20:44:12;101125.63;;;5.49;83.51
43824;BME280;29470;53.550;9.926;2023-01-30T20:49:20;101136.25;;;5.17;83.87
43824;BME280;29470;53.550;9.926;2023-01-30T20:54:23;101141.56;;;5.19;84.13
43824;BME280;29470;53.550;9.926;2023-01-30T20:59:27;101142.03;;;4.97;84.72
43824;BME280;29470;53.550;9.926;2023-01-30T21:04:34;101146.66;;;5.10;82.90
43824;BME280;29470;53.550;9.926;2023-01-30T21:09:39;101148.94;;;5.15;82.32
43824;BME280;29470;53.550;9.926;2023-01-30T21:14:46;101154.69;;;5.04;84.00
43824;BME280;29470;53.550;9.926;2023-01-30T21:19:52;101148.47;;;5.11;83.69
43824;BME280;29470;53.550;9.926;2023-01-30T21:24:57;101158.31;;;4.89;85.19
43824;BME280;29470;53.550;9.926;2023-01-30T21:30:02;101160.72;;;4.78;86.76
43824;BME280;29470;53.550;9.926;2023-01-30T21:35:08;101163.56;;;4.90;87.53
43824;BME280;29470;53.550;9.926;2023-01-30T21:40:12;101176.09;;;5.05;86.24
43824;BME280;29470;53.550;9.926;2023-01-30T21:45:33;101172.00;;;4.89;87.66
43824;BME280;29470;53.550;9.926;2023-01-30T21:50:38;101192.97;;;5.03;88.46
43824;BME280;29470;53.550;9.926;2023-01-30T21:55:41;101199.47;;;4.81;90.01
43824;BME280;29470;53.550;9.926;2023-01-30T22:00:44;101204.13;;;4.85;88.98
43824;BME280;29470;53.550;9.926;2023-01-30T22:05:51;101200.22;;;4.98;89.12
43824;BME280;29470;53.550;9.926;2023-01-30T22:11:03;101196.56;;;5.31;87.82
43824;BME280;29470;53.550;9.926;2023-01-30T22:16:08;101209.41;;;5.31;89.87
43824;BME280;29470;53.550;9.926;2023-01-30T22:21:14;101218.03;;;5.31;89.57
43824;BME280;29470;53.550;9.926;2023-01-30T22:26:22;101215.91;;;5.10;89.59
43824;BME280;29470;53.550;9.926;2023-01-30T22:31:30;101217.13;;;5.13;88.29
43824;BME280;29470;53.550;9.926;2023-01-30T22:36:37;101235.19;;;4.97;88.01
43824;BME280;29470;53.550;9.926;2023-01-30T22:41:41;101247.88;;;5.22;84.86
43824;BME280;29470;53.550;9.926;2023-01-30T22:46:45;101257.84;;;5.10;85.86
43824;BME280;29470;53.550;9.926;2023-01-30T22:51:51;101261.41;;;4.86;87.86
43824;BME280;29470;53.550;9.926;2023-01-30T22:56:54;101261.97;;;4.66;90.00
43824;BME280;29470;53.550;9.926;2023-01-30T23:01:57;101250.50;;;4.62;90.11
43824;BME280;29470;53.550;9.926;2023-01-30T23:07:02;101251.25;;;4.61;90.48
43824;BME280;29470;53.550;9.926;2023-01-30T23:12:05;101251.47;;;4.38;92.39
43824;BME280;29470;53.550;9.926;2023-01-30T23:17:25;101256.78;;;4.39;92.76
43824;BME280;29470;53.550;9.926;2023-01-30T23:22:50;101250.63;;;4.46;92.39
43824;BME280;29470;53.550;9.926;2023-01-30T23:27:53;101260.31;;;4.66;92.48
43824;BME280;29470;53.550;9.926;2023-01-30T23:32:56;101267.31;;;4.94;91.95
43824;BME280;29470;53.550;9.926;2023-01-30T23:38:00;101256.03;;;5.09;92.10
43824;BME280;29470;53.550;9.926;2023-01-30T23:43:19;101268.13;;;5.28;93.19
43824;BME280;29470;53.550;9.926;2023-01-30T23:48:22;101260.56;;;5.12;92.90
43824;BME280;29470;53.550;9.926;2023-01-30T23:53:27;101257.84;;;5.19;93.13
43824;BME280;29470;53.550;9.926;2023-01-30T23:58:30;101268.09;;;5.10;94.36
